sensor_id;sensor_type;location;lat;lon;timestamp;pressure;altitude;pressure_sealevel;temperature
68911;BMP180;55953;51.650;-0.522;2024-02-15T00:00:04;100352.00;;;12.90
68911;BMP180;55953;51.650;-0.522;2024-02-15T00:02:32;100348.00;;;12.90
68911;BMP180;55953;51.650;-0.522;2024-02-15T00:05:00;100346.60;;;12.90
68911;BMP180;55953;51.650;-0.522;2024-02-15T00:07:28;100341.60;;;12.92
68911;BMP180;55953;51.650;-0.522;2024-02-15T00:09:56;100350.20;;;12.90
68911;BMP180;55953;51.650;-0.522;2024-02-15T00:12:26;100352.80;;;12.94
68911;BMP180;55953;51.650;-0.522;2024-02-15T00:14:54;100358.80;;;12.94
68911;BMP180;55953;51.650;-0.522;2024-02-15T00:17:27;100358.60;;;13.00
68911;BMP180;55953;51.650;-0.522;2024-02-15T00:19:58;100352.60;;;13.00
68911;BMP180;55953;51.650;-0.522;2024-02-15T00:22:27;100355.20;;;13.00
68911;BMP180;55953;51.650;-0.522;2024-02-15T00:24:55;100357.00;;;13.00
68911;BMP180;55953;51.650;-0.522;2024-02-15T00:27:23;100362.40;;;13.10
68911;BMP180;55953;51.650;-0.522;2024-02-15T00:29:51;100364.60;;;13.08
68911;BMP180;55953;51.650;-0.522;2024-02-15T00:32:19;100362.00;;;13.00
68911;BMP180;55953;51.650;-0.522;2024-02-15T00:34:47;100356.00;;;13.08
68911;BMP180;55953;51.650;-0.522;2024-02-15T00:37:16;100358.20;;;13.10
68911;BMP180;55953;51.650;-0.522;2024-02-15T00:39:44;100353.40;;;13.10
68911;BMP180;55953;51.650;-0.522;2024-02-15T00:42:12;100351.00;;;13.10
68911;BMP180;55953;51.650;-0.522;2024-02-15T00:44:40;100349.00;;;13.10
68911;BMP180;55953;51.650;-0.522;2024-02-15T00:47:09;100352.40;;;13.10
68911;BMP180;55953;51.650;-0.522;2024-02-15T00:49:39;100352.40;;;13.10
68911;BMP180;55953;51.650;-0.522;2024-02-15T00:52:07;100347.80;;;13.10
68911;BMP180;55953;51.650;-0.522;2024-02-15T00:54:35;100357.60;;;13.10
68911;BMP180;55953;51.650;-0.522;2024-02-15T00:57:04;100355.20;;;13.10
68911;BMP180;55953;51.650;-0.522;2024-02-15T00:59:32;100356.20;;;13.10
68911;BMP180;55953;51.650;-0.522;2024-02-15T01:02:04;100352.60;;;13.08
68911;BMP180;55953;51.650;-0.522;2024-02-15T01:04:34;100353.80;;;13.00
68911;BMP180;55953;51.650;-0.522;2024-02-15T01:07:02;100350.00;;;13.00
68911;BMP180;55953;51.650;-0.522;2024-02-15T01:09:30;100352.20;;;13.00
68911;BMP180;55953;51.650;-0.522;2024-02-15T01:11:58;100344.00;;;13.00
68911;BMP180;55953;51.650;-0.522;2024-02-15T01:14:26;100347.40;;;13.00
68911;BMP180;55953;51.650;-0.522;2024-02-15T01:16:57;100342.20;;;13.00
68911;BMP180;55953;51.650;-0.522;2024-02-15T01:19:25;100326.80;;;13.00
68911;BMP180;55953;51.650;-0.522;2024-02-15T01:21:53;100328.80;;;13.00
68911;BMP180;55953;51.650;-0.522;2024-02-15T01:24:21;100329.80;;;13.00
68911;BMP180;55953;51.650;-0.522;2024-02-15T01:26:49;100321.40;;;13.00
68911;BMP180;55953;51.650;-0.522;2024-02-15T01:29:17;100314.60;;;13.00
68911;BMP180;55953;51.650;-0.522;2024-02-15T01:31:45;100310.60;;;13.00
68911;BMP180;55953;51.650;-0.522;2024-02-15T01:34:13;100303.40;;;13.00
68911;BMP180;55953;51.650;-0.522;2024-02-15T01:36:41;100303.20;;;13.00
68911;BMP180;55953;51.650;-0.522;2024-02-15T01:39:09;100304.40;;;13.00
68911;BMP180;55953;51.650;-0.522;2024-02-15T01:41:37;100305.60;;;13.00
68911;BMP180;55953;51.650;-0.522;2024-02-15T01:44:05;100310.20;;;13.06
68911;BMP180;55953;51.650;-0.522;2024-02-15T01:46:34;100314.40;;;13.02
68911;BMP180;55953;51.650;-0.522;2024-02-15T01:49:02;100312.40;;;13.00
68911;BMP180;55953;51.650;-0.522;2024-02-15T01:51:31;100313.20;;;13.00
68911;BMP180;55953;51.650;-0.522;2024-02-15T01:54:01;100302.40;;;13.00
68911;BMP180;55953;51.650;-0.522;2024-02-15T01:56:30;100303.80;;;13.06
68911;BMP180;55953;51.650;-0.522;2024-02-15T01:58:59;100301.80;;;13.10
68911;BMP180;55953;51.650;-0.522;2024-02-15T02:01:30;100296.60;;;13.10
68911;BMP180;55953;51.650;-0.522;2024-02-15T02:04:00;100297.40;;;13.10
68911;BMP180;55953;51.650;-0.522;2024-02-15T02:06:30;100299.20;;;13.10
68911;BMP180;55953;51.650;-0.522;2024-02-15T02:08:58;100298.40;;;13.18
68911;BMP180;55953;51.650;-0.522;2024-02-15T02:11:26;100297.80;;;13.20
68911;BMP180;55953;51.650;-0.522;2024-02-15T02:13:57;100291.60;;;13.16
68911;BMP180;55953;51.650;-0.522;2024-02-15T02:18:58;100293.00;;;13.20
68911;BMP180;55953;51.650;-0.522;2024-02-15T02:21:28;100283.00;;;13.20
68911;BMP180;55953;51.650;-0.522;2024-02-15T02:23:58;100276.00;;;13.16
68911;BMP180;55953;51.650;-0.522;2024-02-15T02:26:26;100272.00;;;13.20
68911;BMP180;55953;51.650;-0.522;2024-02-15T02:28:54;100272.00;;;13.20
68911;BMP180;55953;51.650;-0.522;2024-02-15T02:31:22;100273.20;;;13.20
68911;BMP180;55953;51.650;-0.522;2024-02-15T02:33:52;100276.80;;;13.20
68911;BMP180;55953;51.650;-0.522;2024-02-15T02:36:21;100282.60;;;13.20
68911;BMP180;55953;51.650;-0.522;2024-02-15T02:38:49;100280.80;;;13.20
68911;BMP180;55953;51.650;-0.522;2024-02-15T02:41:18;100275.00;;;13.20
68911;BMP180;55953;51.650;-0.522;2024-02-15T02:43:47;100265.80;;;13.30
68911;BMP180;55953;51.650;-0.522;2024-02-15T02:46:15;100260.80;;;13.32
68911;BMP180;55953;51.650;-0.522;2024-02-15T02:48:42;100261.40;;;13.40
68911;BMP180;55953;51.650;-0.522;2024-02-15T02:51:11;100255.60;;;13.40
68911;BMP180;55953;51.650;-0.522;2024-02-15T02:53:39;100253.20;;;13.40
68911;BMP180;55953;51.650;-0.522;2024-02-15T02:56:06;100258.00;;;13.30
68911;BMP180;55953;51.650;-0.522;2024-02-15T02:58:36;100258.40;;;13.30
68911;BMP180;55953;51.650;-0.522;2024-02-15T03:01:05;100253.00;;;13.30
68911;BMP180;55953;51.650;-0.522;2024-02-15T03:03:34;100250.40;;;13.26
68911;BMP180;55953;51.650;-0.522;2024-02-15T03:06:02;100247.40;;;13.20
68911;BMP180;55953;51.650;-0.522;2024-02-15T03:08:30;100246.20;;;13.20
68911;BMP180;55953;51.650;-0.522;2024-02-15T03:10:58;100246.60;;;13.20
68911;BMP180;55953;51.650;-0.522;2024-02-15T03:13:25;100243.40;;;13.20
68911;BMP180;55953;51.650;-0.522;2024-02-15T03:15:53;100240.80;;;13.14
68911;BMP180;55953;51.650;-0.522;2024-02-15T03:18:21;100236.80;;;13.20
68911;BMP180;55953;51.650;-0.522;2024-02-15T03:20:51;100232.20;;;13.20
68911;BMP180;55953;51.650;-0.522;2024-02-15T03:23:19;100230.00;;;13.18
68911;BMP180;55953;51.650;-0.522;2024-02-15T03:25:47;100226.80;;;13.14
68911;BMP180;55953;51.650;-0.522;2024-02-15T03:28:16;100215.20;;;13.20
68911;BMP180;55953;51.650;-0.522;2024-02-15T03:30:44;100228.60;;;13.14
68911;BMP180;55953;51.650;-0.522;2024-02-15T03:33:13;100227.40;;;13.20
68911;BMP180;55953;51.650;-0.522;2024-02-15T03:35:42;100223.00;;;13.14
68911;BMP180;55953;51.650;-0.522;2024-02-15T03:38:10;100225.20;;;13.10
68911;BMP180;55953;51.650;-0.522;2024-02-15T03:40:40;100218.40;;;13.10
68911;BMP180;55953;51.650;-0.522;2024-02-15T03:43:08;100219.60;;;13.12
68911;BMP180;55953;51.650;-0.522;2024-02-15T03:45:36;100212.60;;;13.10
68911;BMP180;55953;51.650;-0.522;2024-02-15T03:48:04;100208.00;;;13.10
68911;BMP180;55953;51.650;-0.522;2024-02-15T03:50:33;100208.40;;;13.10
68911;BMP180;55953;51.650;-0.522;2024-02-15T03:53:01;100216.60;;;13.12
68911;BMP180;55953;51.650;-0.522;2024-02-15T03:55:28;100215.20;;;13.10
68911;BMP180;55953;51.650;-0.522;2024-02-15T03:57:56;100218.00;;;13.10
68911;BMP180;55953;51.650;-0.522;2024-02-15T04:00:25;100221.40;;;13.10
68911;BMP180;55953;51.650;-0.522;2024-02-15T04:02:54;100218.40;;;13.10
68911;BMP180;55953;51.650;-0.522;2024-02-15T04:05:23;100217.20;;;13.10
68911;BMP180;55953;51.650;-0.522;2024-02-15T04:07:51;100208.20;;;13.10
68911;BMP180;55953;51.650;-0.522;2024-02-15T04:10:21;100205.80;;;13.08
68911;BMP180;55953;51.650;-0.522;2024-02-15T04:12:49;100204.60;;;13.00
68911;BMP180;55953;51.650;-0.522;2024-02-15T04:15:17;100198.00;;;13.00
68911;BMP180;55953;51.650;-0.522;2024-02-15T04:17:46;100194.40;;;13.02
68911;BMP180;55953;51.650;-0.522;2024-02-15T04:20:14;100188.80;;;13.10
68911;BMP180;55953;51.650;-0.522;2024-02-15T04:22:45;100194.60;;;13.10
68911;BMP180;55953;51.650;-0.522;2024-02-15T04:25:15;100209.60;;;13.10
68911;BMP180;55953;51.650;-0.522;2024-02-15T04:27:46;100203.20;;;13.10
68911;BMP180;55953;51.650;-0.522;2024-02-15T04:30:15;100212.40;;;13.10
68911;BMP180;55953;51.650;-0.522;2024-02-15T04:32:44;100205.60;;;13.00
68911;BMP180;55953;51.650;-0.522;2024-02-15T04:35:12;100196.60;;;13.02
68911;BMP180;55953;51.650;-0.522;2024-02-15T04:37:42;100207.00;;;13.00
68911;BMP180;55953;51.650;-0.522;2024-02-15T04:40:10;100200.60;;;13.08
68911;BMP180;55953;51.650;-0.522;2024-02-15T04:42:41;100195.80;;;13.10
68911;BMP180;55953;51.650;-0.522;2024-02-15T04:45:11;100195.80;;;13.10
68911;BMP180;55953;51.650;-0.522;2024-02-15T04:47:42;100191.80;;;13.10
68911;BMP180;55953;51.650;-0.522;2024-02-15T04:50:11;100194.40;;;13.10
68911;BMP180;55953;51.650;-0.522;2024-02-15T04:52:39;100197.20;;;13.10
68911;BMP180;55953;51.650;-0.522;2024-02-15T04:55:07;100189.60;;;13.10
68911;BMP180;55953;51.650;-0.522;2024-02-15T04:57:35;100179.80;;;13.10
68911;BMP180;55953;51.650;-0.522;2024-02-15T05:00:06;100184.60;;;13.10
68911;BMP180;55953;51.650;-0.522;2024-02-15T05:02:39;100184.80;;;13.10
68911;BMP180;55953;51.650;-0.522;2024-02-15T05:05:10;100184.20;;;13.10
68911;BMP180;55953;51.650;-0.522;2024-02-15T05:07:43;100188.60;;;13.14
68911;BMP180;55953;51.650;-0.522;2024-02-15T05:10:11;100188.80;;;13.10
68911;BMP180;55953;51.650;-0.522;2024-02-15T05:12:40;100187.80;;;13.10
68911;BMP180;55953;51.650;-0.522;2024-02-15T05:15:09;100191.00;;;13.16
68911;BMP180;55953;51.650;-0.522;2024-02-15T05:17:40;100189.80;;;13.20
68911;BMP180;55953;51.650;-0.522;2024-02-15T05:20:10;100192.40;;;13.20
68911;BMP180;55953;51.650;-0.522;2024-02-15T05:22:40;100194.60;;;13.20
68911;BMP180;55953;51.650;-0.522;2024-02-15T05:25:19;100191.60;;;13.20
68911;BMP180;55953;51.650;-0.522;2024-02-15T05:27:56;100188.80;;;13.20
68911;BMP180;55953;51.650;-0.522;2024-02-15T05:30:25;100190.20;;;13.20
68911;BMP180;55953;51.650;-0.522;2024-02-15T05:32:54;100187.60;;;13.20
68911;BMP180;55953;51.650;-0.522;2024-02-15T05:35:24;100191.40;;;13.20
68911;BMP180;55953;51.650;-0.522;2024-02-15T05:37:55;100188.00;;;13.20
68911;BMP180;55953;51.650;-0.522;2024-02-15T05:40:24;100184.00;;;13.20
68911;BMP180;55953;51.650;-0.522;2024-02-15T05:42:56;100181.40;;;13.20
68911;BMP180;55953;51.650;-0.522;2024-02-15T05:47:53;100182.60;;;13.30
68911;BMP180;55953;51.650;-0.522;2024-02-15T05:50:22;100179.40;;;13.30
68911;BMP180;55953;51.650;-0.522;2024-02-15T05:52:52;100179.60;;;13.32
68911;BMP180;55953;51.650;-0.522;2024-02-15T05:55:22;100176.60;;;13.40
68911;BMP180;55953;51.650;-0.522;2024-02-15T05:57:50;100179.00;;;13.40
68911;BMP180;55953;51.650;-0.522;2024-02-15T06:00:18;100176.60;;;13.50
68911;BMP180;55953;51.650;-0.522;2024-02-15T06:02:50;100173.40;;;13.50
68911;BMP180;55953;51.650;-0.522;2024-02-15T06:05:19;100171.20;;;13.58
68911;BMP180;55953;51.650;-0.522;2024-02-15T06:07:48;100172.80;;;13.60
68911;BMP180;55953;51.650;-0.522;2024-02-15T06:10:16;100172.80;;;13.60
68911;BMP180;55953;51.650;-0.522;2024-02-15T06:12:45;100172.00;;;13.70
68911;BMP180;55953;51.650;-0.522;2024-02-15T06:15:13;100173.00;;;13.70
68911;BMP180;55953;51.650;-0.522;2024-02-15T06:17:46;100168.00;;;13.78
68911;BMP180;55953;51.650;-0.522;2024-02-15T06:20:16;100162.00;;;13.80
68911;BMP180;55953;51.650;-0.522;2024-02-15T06:22:48;100163.00;;;13.80
68911;BMP180;55953;51.650;-0.522;2024-02-15T06:25:16;100157.80;;;13.80
68911;BMP180;55953;51.650;-0.522;2024-02-15T06:27:50;100157.00;;;13.80
68911;BMP180;55953;51.650;-0.522;2024-02-15T06:30:26;100159.00;;;13.86
68911;BMP180;55953;51.650;-0.522;2024-02-15T06:33:13;100150.60;;;13.90
68911;BMP180;55953;51.650;-0.522;2024-02-15T06:36:05;100148.40;;;13.90
68911;BMP180;55953;51.650;-0.522;2024-02-15T06:38:51;100142.80;;;13.90
68911;BMP180;55953;51.650;-0.522;2024-02-15T06:41:38;100144.00;;;13.90
68911;BMP180;55953;51.650;-0.522;2024-02-15T06:44:06;100143.40;;;13.90
68911;BMP180;55953;51.650;-0.522;2024-02-15T06:46:35;100140.80;;;13.90
68911;BMP180;55953;51.650;-0.522;2024-02-15T06:49:03;100140.80;;;13.94
68911;BMP180;55953;51.650;-0.522;2024-02-15T06:51:33;100143.80;;;13.96
68911;BMP180;55953;51.650;-0.522;2024-02-15T06:54:01;100149.40;;;14.00
68911;BMP180;55953;51.650;-0.522;2024-02-15T06:56:38;100151.00;;;14.00
68911;BMP180;55953;51.650;-0.522;2024-02-15T06:59:08;100149.80;;;14.00
68911;BMP180;55953;51.650;-0.522;2024-02-15T07:01:38;100149.20;;;14.00
68911;BMP180;55953;51.650;-0.522;2024-02-15T07:04:05;100155.80;;;13.92
68911;BMP180;55953;51.650;-0.522;2024-02-15T07:06:33;100162.00;;;13.90
68911;BMP180;55953;51.650;-0.522;2024-02-15T07:09:06;100165.40;;;13.90
68911;BMP180;55953;51.650;-0.522;2024-02-15T07:11:34;100159.60;;;13.90
68911;BMP180;55953;51.650;-0.522;2024-02-15T07:14:03;100161.80;;;13.90
68911;BMP180;55953;51.650;-0.522;2024-02-15T07:16:35;100169.40;;;13.90
68911;BMP180;55953;51.650;-0.522;2024-02-15T07:19:02;100171.40;;;13.90
68911;BMP180;55953;51.650;-0.522;2024-02-15T07:21:31;100175.20;;;13.90
68911;BMP180;55953;51.650;-0.522;2024-02-15T07:23:59;100171.40;;;13.90
68911;BMP180;55953;51.650;-0.522;2024-02-15T07:26:28;100177.40;;;13.90
68911;BMP180;55953;51.650;-0.522;2024-02-15T07:28:56;100176.80;;;13.80
68911;BMP180;55953;51.650;-0.522;2024-02-15T07:31:28;100179.40;;;13.80
68911;BMP180;55953;51.650;-0.522;2024-02-15T07:33:57;100176.80;;;13.80
68911;BMP180;55953;51.650;-0.522;2024-02-15T07:36:25;100177.00;;;13.80
68911;BMP180;55953;51.650;-0.522;2024-02-15T07:38:55;100178.60;;;13.70
68911;BMP180;55953;51.650;-0.522;2024-02-15T07:41:29;100178.40;;;13.70
68911;BMP180;55953;51.650;-0.522;2024-02-15T07:43:58;100170.80;;;13.70
68911;BMP180;55953;51.650;-0.522;2024-02-15T07:46:29;100165.60;;;13.70
68911;BMP180;55953;51.650;-0.522;2024-02-15T07:48:56;100167.00;;;13.80
68911;BMP180;55953;51.650;-0.522;2024-02-15T07:51:25;100169.20;;;13.80
68911;BMP180;55953;51.650;-0.522;2024-02-15T07:53:53;100165.20;;;13.80
68911;BMP180;55953;51.650;-0.522;2024-02-15T07:56:21;100160.40;;;13.80
68911;BMP180;55953;51.650;-0.522;2024-02-15T07:58:49;100153.20;;;13.84
68911;BMP180;55953;51.650;-0.522;2024-02-15T08:01:21;100150.80;;;13.88
68911;BMP180;55953;51.650;-0.522;2024-02-15T08:03:52;100153.00;;;13.86
68911;BMP180;55953;51.650;-0.522;2024-02-15T08:06:22;100151.00;;;13.80
68911;BMP180;55953;51.650;-0.522;2024-02-15T08:08:56;100153.00;;;13.80
68911;BMP180;55953;51.650;-0.522;2024-02-15T08:11:24;100163.00;;;13.80
68911;BMP180;55953;51.650;-0.522;2024-02-15T08:13:54;100151.80;;;13.80
68911;BMP180;55953;51.650;-0.522;2024-02-15T08:16:26;100154.00;;;13.80
68911;BMP180;55953;51.650;-0.522;2024-02-15T08:18:57;100151.00;;;13.80
68911;BMP180;55953;51.650;-0.522;2024-02-15T08:21:27;100149.40;;;13.80
68911;BMP180;55953;51.650;-0.522;2024-02-15T08:24:01;100150.80;;;13.80
68911;BMP180;55953;51.650;-0.522;2024-02-15T08:26:38;100153.60;;;13.74
68911;BMP180;55953;51.650;-0.522;2024-02-15T08:29:07;100148.40;;;13.70
68911;BMP180;55953;51.650;-0.522;2024-02-15T08:31:35;100150.00;;;13.70
68911;BMP180;55953;51.650;-0.522;2024-02-15T08:34:04;100150.80;;;13.70
68911;BMP180;55953;51.650;-0.522;2024-02-15T08:36:34;100147.60;;;13.60
68911;BMP180;55953;51.650;-0.522;2024-02-15T08:39:02;100147.40;;;13.60
68911;BMP180;55953;51.650;-0.522;2024-02-15T08:41:32;100145.80;;;13.70
68911;BMP180;55953;51.650;-0.522;2024-02-15T08:44:00;100141.20;;;13.70
68911;BMP180;55953;51.650;-0.522;2024-02-15T08:46:29;100144.20;;;13.80
68911;BMP180;55953;51.650;-0.522;2024-02-15T08:48:57;100140.40;;;13.80
68911;BMP180;55953;51.650;-0.522;2024-02-15T08:51:25;100140.80;;;13.80
68911;BMP180;55953;51.650;-0.522;2024-02-15T08:53:53;100141.00;;;13.80
68911;BMP180;55953;51.650;-0.522;2024-02-15T08:56:22;100132.40;;;13.90
68911;BMP180;55953;51.650;-0.522;2024-02-15T08:58:52;100130.80;;;13.90
68911;BMP180;55953;51.650;-0.522;2024-02-15T09:01:20;100130.60;;;13.90
68911;BMP180;55953;51.650;-0.522;2024-02-15T09:03:48;100123.40;;;13.90
68911;BMP180;55953;51.650;-0.522;2024-02-15T09:06:16;100126.40;;;13.92
68911;BMP180;55953;51.650;-0.522;2024-02-15T09:08:46;100123.60;;;14.00
68911;BMP180;55953;51.650;-0.522;2024-02-15T09:11:14;100118.40;;;14.08
68911;BMP180;55953;51.650;-0.522;2024-02-15T09:13:42;100104.00;;;14.10
68911;BMP180;55953;51.650;-0.522;2024-02-15T09:16:10;100103.60;;;14.04
68911;BMP180;55953;51.650;-0.522;2024-02-15T09:18:39;100099.80;;;14.06
68911;BMP180;55953;51.650;-0.522;2024-02-15T09:21:13;100099.20;;;14.10
68911;BMP180;55953;51.650;-0.522;2024-02-15T09:23:42;100096.60;;;14.10
68911;BMP180;55953;51.650;-0.522;2024-02-15T09:26:10;100095.40;;;14.10
68911;BMP180;55953;51.650;-0.522;2024-02-15T09:28:40;100094.80;;;14.10
68911;BMP180;55953;51.650;-0.522;2024-02-15T09:31:08;100105.20;;;14.10
68911;BMP180;55953;51.650;-0.522;2024-02-15T09:33:40;100104.40;;;14.18
68911;BMP180;55953;51.650;-0.522;2024-02-15T09:36:08;100113.00;;;14.20
68911;BMP180;55953;51.650;-0.522;2024-02-15T09:38:36;100107.00;;;14.30
68911;BMP180;55953;51.650;-0.522;2024-02-15T09:41:04;100110.20;;;14.30
68911;BMP180;55953;51.650;-0.522;2024-02-15T09:43:35;100112.20;;;14.38
68911;BMP180;55953;51.650;-0.522;2024-02-15T09:46:03;100111.40;;;14.40
68911;BMP180;55953;51.650;-0.522;2024-02-15T09:48:34;100109.20;;;14.40
68911;BMP180;55953;51.650;-0.522;2024-02-15T09:51:04;100095.40;;;14.50
68911;BMP180;55953;51.650;-0.522;2024-02-15T09:53:32;100089.60;;;14.50
68911;BMP180;55953;51.650;-0.522;2024-02-15T09:56:01;100090.60;;;14.60
68911;BMP180;55953;51.650;-0.522;2024-02-15T09:58:32;100085.40;;;14.60
68911;BMP180;55953;51.650;-0.522;2024-02-15T10:01:04;100083.40;;;14.60
68911;BMP180;55953;51.650;-0.522;2024-02-15T10:03:38;100086.00;;;14.70
68911;BMP180;55953;51.650;-0.522;2024-02-15T10:06:09;100082.00;;;14.70
68911;BMP180;55953;51.650;-0.522;2024-02-15T10:08:37;100078.20;;;14.80
68911;BMP180;55953;51.650;-0.522;2024-02-15T10:11:10;100073.60;;;14.80
68911;BMP180;55953;51.650;-0.522;2024-02-15T10:13:39;100065.60;;;14.80
68911;BMP180;55953;51.650;-0.522;2024-02-15T10:16:19;100071.20;;;14.80
68911;BMP180;55953;51.650;-0.522;2024-02-15T10:18:47;100070.20;;;14.90
68911;BMP180;55953;51.650;-0.522;2024-02-15T10:21:26;100060.80;;;14.90
68911;BMP180;55953;51.650;-0.522;2024-02-15T10:24:07;100060.60;;;15.00
68911;BMP180;55953;51.650;-0.522;2024-02-15T10:26:36;100059.80;;;15.02
68911;BMP180;55953;51.650;-0.522;2024-02-15T10:29:09;100049.80;;;15.00
68911;BMP180;55953;51.650;-0.522;2024-02-15T10:31:40;100041.60;;;15.00
68911;BMP180;55953;51.650;-0.522;2024-02-15T10:34:14;100041.40;;;15.10
68911;BMP180;55953;51.650;-0.522;2024-02-15T10:36:42;100039.00;;;15.18
68911;BMP180;55953;51.650;-0.522;2024-02-15T10:39:15;100034.00;;;15.30
68911;BMP180;55953;51.650;-0.522;2024-02-15T10:41:54;100035.00;;;15.30
68911;BMP180;55953;51.650;-0.522;2024-02-15T10:44:24;100030.80;;;15.40
68911;BMP180;55953;51.650;-0.522;2024-02-15T10:46:53;100039.00;;;15.40
68911;BMP180;55953;51.650;-0.522;2024-02-15T10:49:25;100033.60;;;15.40
68911;BMP180;55953;51.650;-0.522;2024-02-15T10:51:58;100029.80;;;15.50
68911;BMP180;55953;51.650;-0.522;2024-02-15T10:55:11;100016.60;;;15.52
68911;BMP180;55953;51.650;-0.522;2024-02-15T10:57:46;100015.20;;;15.70
68911;BMP180;55953;51.650;-0.522;2024-02-15T11:00:18;100011.00;;;15.70
68911;BMP180;55953;51.650;-0.522;2024-02-15T11:03:00;100008.40;;;15.80
68911;BMP180;55953;51.650;-0.522;2024-02-15T11:05:33;99996.40;;;15.94
68911;BMP180;55953;51.650;-0.522;2024-02-15T11:08:07;99990.00;;;16.00
68911;BMP180;55953;51.650;-0.522;2024-02-15T11:10:37;99986.00;;;16.10
68911;BMP180;55953;51.650;-0.522;2024-02-15T11:13:06;99987.20;;;16.10
68911;BMP180;55953;51.650;-0.522;2024-02-15T11:15:42;99990.00;;;16.20
68911;BMP180;55953;51.650;-0.522;2024-02-15T11:18:47;99986.40;;;16.20
68911;BMP180;55953;51.650;-0.522;2024-02-15T11:21:55;99978.60;;;16.30
68911;BMP180;55953;51.650;-0.522;2024-02-15T11:24:27;99984.00;;;16.30
68911;BMP180;55953;51.650;-0.522;2024-02-15T11:27:00;99973.00;;;16.30
68911;BMP180;55953;51.650;-0.522;2024-02-15T11:30:00;99969.40;;;16.30
68911;BMP180;55953;51.650;-0.522;2024-02-15T11:32:46;99966.00;;;16.40
68911;BMP180;55953;51.650;-0.522;2024-02-15T11:35:25;99962.60;;;16.42
68911;BMP180;55953;51.650;-0.522;2024-02-15T11:37:56;99960.80;;;16.40
68911;BMP180;55953;51.650;-0.522;2024-02-15T11:46:15;99951.00;;;16.30
68911;BMP180;55953;51.650;-0.522;2024-02-15T11:48:47;99947.20;;;16.30
68911;BMP180;55953;51.650;-0.522;2024-02-15T11:51:35;99949.00;;;16.40
68911;BMP180;55953;51.650;-0.522;2024-02-15T11:54:20;99933.40;;;16.40
68911;BMP180;55953;51.650;-0.522;2024-02-15T11:56:57;99935.80;;;16.40
68911;BMP180;55953;51.650;-0.522;2024-02-15T11:59:46;99928.60;;;16.40
68911;BMP180;55953;51.650;-0.522;2024-02-15T12:02:32;99926.60;;;16.40
68911;BMP180;55953;51.650;-0.522;2024-02-15T12:05:19;99926.00;;;16.40
68911;BMP180;55953;51.650;-0.522;2024-02-15T12:08:07;99927.80;;;16.30
68911;BMP180;55953;51.650;-0.522;2024-02-15T12:11:00;99926.80;;;16.20
68911;BMP180;55953;51.650;-0.522;2024-02-15T12:13:51;99923.00;;;16.10
68911;BMP180;55953;51.650;-0.522;2024-02-15T12:16:37;99925.40;;;16.00
68911;BMP180;55953;51.650;-0.522;2024-02-15T12:19:24;99912.00;;;16.00
68911;BMP180;55953;51.650;-0.522;2024-02-15T12:21:53;99909.20;;;16.08
68911;BMP180;55953;51.650;-0.522;2024-02-15T12:24:21;99905.00;;;16.10
68911;BMP180;55953;51.650;-0.522;2024-02-15T12:27:01;99892.60;;;16.10
68911;BMP180;55953;51.650;-0.522;2024-02-15T12:29:33;99901.20;;;16.20
68911;BMP180;55953;51.650;-0.522;2024-02-15T12:32:03;99890.60;;;16.30
68911;BMP180;55953;51.650;-0.522;2024-02-15T12:34:31;99885.20;;;16.40
68911;BMP180;55953;51.650;-0.522;2024-02-15T12:37:06;99886.60;;;16.60
68911;BMP180;55953;51.650;-0.522;2024-02-15T12:39:37;99888.00;;;16.70
68911;BMP180;55953;51.650;-0.522;2024-02-15T12:42:06;99885.20;;;16.82
68911;BMP180;55953;51.650;-0.522;2024-02-15T12:44:35;99878.80;;;17.00
68911;BMP180;55953;51.650;-0.522;2024-02-15T12:47:04;99877.00;;;17.10
68911;BMP180;55953;51.650;-0.522;2024-02-15T12:49:33;99875.40;;;17.20
68911;BMP180;55953;51.650;-0.522;2024-02-15T12:52:38;99875.80;;;17.30
68911;BMP180;55953;51.650;-0.522;2024-02-15T12:55:19;99869.40;;;17.40
68911;BMP180;55953;51.650;-0.522;2024-02-15T12:57:54;99872.80;;;17.40
68911;BMP180;55953;51.650;-0.522;2024-02-15T13:00:26;99873.00;;;17.40
68911;BMP180;55953;51.650;-0.522;2024-02-15T13:03:02;99873.60;;;17.40
68911;BMP180;55953;51.650;-0.522;2024-02-15T13:05:31;99873.80;;;17.42
68911;BMP180;55953;51.650;-0.522;2024-02-15T13:08:00;99867.60;;;17.60
68911;BMP180;55953;51.650;-0.522;2024-02-15T13:10:38;99861.20;;;17.80
68911;BMP180;55953;51.650;-0.522;2024-02-15T13:13:07;99860.80;;;17.98
68911;BMP180;55953;51.650;-0.522;2024-02-15T13:15:37;99859.20;;;18.10
68911;BMP180;55953;51.650;-0.522;2024-02-15T13:18:06;99860.60;;;18.20
68911;BMP180;55953;51.650;-0.522;2024-02-15T13:20:38;99863.40;;;18.30
68911;BMP180;55953;51.650;-0.522;2024-02-15T13:23:11;99859.60;;;18.30
68911;BMP180;55953;51.650;-0.522;2024-02-15T13:25:43;99853.20;;;18.40
68911;BMP180;55953;51.650;-0.522;2024-02-15T13:28:12;99850.00;;;18.40
68911;BMP180;55953;51.650;-0.522;2024-02-15T13:30:42;99848.20;;;18.40
68911;BMP180;55953;51.650;-0.522;2024-02-15T13:33:14;99831.60;;;18.40
68911;BMP180;55953;51.650;-0.522;2024-02-15T13:35:42;99826.60;;;18.40
68911;BMP180;55953;51.650;-0.522;2024-02-15T13:38:11;99822.80;;;18.36
68911;BMP180;55953;51.650;-0.522;2024-02-15T13:40:51;99821.40;;;18.40
68911;BMP180;55953;51.650;-0.522;2024-02-15T13:43:23;99822.20;;;18.30
68911;BMP180;55953;51.650;-0.522;2024-02-15T13:45:51;99812.40;;;18.30
68911;BMP180;55953;51.650;-0.522;2024-02-15T13:48:20;99811.00;;;18.30
68911;BMP180;55953;51.650;-0.522;2024-02-15T13:50:51;99805.80;;;18.26
68911;BMP180;55953;51.650;-0.522;2024-02-15T13:53:22;99803.00;;;18.20
68911;BMP180;55953;51.650;-0.522;2024-02-15T13:55:52;99794.40;;;18.30
68911;BMP180;55953;51.650;-0.522;2024-02-15T13:58:21;99791.40;;;18.30
68911;BMP180;55953;51.650;-0.522;2024-02-15T14:00:48;99788.40;;;18.26
68911;BMP180;55953;51.650;-0.522;2024-02-15T14:03:16;99785.40;;;18.20
68911;BMP180;55953;51.650;-0.522;2024-02-15T14:05:46;99777.80;;;18.20
68911;BMP180;55953;51.650;-0.522;2024-02-15T14:08:15;99780.20;;;18.10
68911;BMP180;55953;51.650;-0.522;2024-02-15T14:10:43;99774.80;;;18.10
68911;BMP180;55953;51.650;-0.522;2024-02-15T14:13:12;99770.40;;;18.10
68911;BMP180;55953;51.650;-0.522;2024-02-15T14:15:42;99769.40;;;18.10
68911;BMP180;55953;51.650;-0.522;2024-02-15T14:18:12;99758.60;;;18.00